createdAt,value
2022-12-19T00:28:48.624Z,78.8
2022-12-19T00:58:48.641Z,78.75
2022-12-19T01:28:48.632Z,78.95
2022-12-19T01:58:48.624Z,78.76
2022-12-19T02:28:48.637Z,78.87
2022-12-19T02:58:48.655Z,78.8
2022-12-19T03:28:48.667Z,78.79
2022-12-19T03:58:48.691Z,78.73
2022-12-19T04:28:48.693Z,78.42
2022-12-19T04:58:48.703Z,78.81
2022-12-19T05:28:48.708Z,78.69
2022-12-19T05:58:48.734Z,78.8
2022-12-19T06:28:48.709Z,78.88
2022-12-19T06:58:48.710Z,79.02
2022-12-19T07:28:48.719Z,79.19
2022-12-19T07:58:48.707Z,79.46
2022-12-19T08:28:48.727Z,79.8
2022-12-19T08:58:48.722Z,80.08
2022-12-19T09:28:48.718Z,80.25
2022-12-19T09:58:48.769Z,80.41
2022-12-19T10:28:48.745Z,80.25
2022-12-19T10:58:48.808Z,80.51
2022-12-19T11:30:48.175Z,80.57
2022-12-19T11:58:48.808Z,80.55
2022-12-19T12:31:44.955Z,80.4
2022-12-19T12:58:48.836Z,80.32
2022-12-19T13:28:48.801Z,80.49
2022-12-19T13:58:48.818Z,80.24
2022-12-19T14:28:54.517Z,80.29
2022-12-19T14:58:53.786Z,80.44
2022-12-19T15:28:48.810Z,80.54
2022-12-19T15:58:48.840Z,80.62
2022-12-19T16:28:48.832Z,80.9
2022-12-19T16:58:48.827Z,80.93
2022-12-19T17:28:48.806Z,81.06
2022-12-19T17:58:48.831Z,81.24
2022-12-19T18:28:48.828Z,81.32
2022-12-19T18:58:48.860Z,81.38
2022-12-19T19:28:52.434Z,81.55
2022-12-19T19:58:48.861Z,81.9
2022-12-19T20:28:49.976Z,81.92
2022-12-19T20:58:48.870Z,82.09
2022-12-19T21:28:48.863Z,82.1
2022-12-19T21:58:48.874Z,82.26
2022-12-19T22:28:48.933Z,82.28
2022-12-19T22:58:48.923Z,82.47
2022-12-19T23:28:48.888Z,82.91
2022-12-19T23:58:48.886Z,82.64
